This is the latest recevied weather packets stored in our database for station/object EW1958. If no packets are shown the sender has not sent any weather packets the latest 10 day(s).
| Time | Temp. | Humidity | Pressure | Rain* | Wind** | Luminosity | Snow |
|---|---|---|---|---|---|---|---|
| 1777940866 | 24.44° C | 45% | 1011.9 hPa | 0 mm | - | - | - |
| 1777940564 | 24.44° C | 45% | 1011.9 hPa | 0 mm | - | - | - |
| 1777940420 | 25° C | 45% | 1011.9 hPa | 0 mm | - | - | - |
| 1777939960 | 25° C | 42% | 1011.9 hPa | 0 mm | - | - | - |
| 1777939659 | 25° C | 42% | 1011.9 hPa | 0 mm | - | - | - |
| 1777939359 | 25° C | 42% | 1012 hPa | 0 mm | - | - | - |
| 1777939208 | 25° C | 40% | 1012 hPa | 0 mm | - | - | - |
| 1777938754 | 25° C | 41% | 1012 hPa | 0 mm | - | - | - |
| 1777938455 | 25° C | 41% | 1012.1 hPa | 0 mm | - | - | - |
| 1777938156 | 25° C | 42% | 1012.2 hPa | 0 mm | - | - | - |
| 1777938004 | 25° C | 40% | 1012.1 hPa | 0 mm | - | - | - |
| 1777937554 | 25.56° C | 41% | 1012.1 hPa | 0 mm | - | - | - |
| 1777937268 | 25.56° C | 40% | 1012.2 hPa | 0 mm | - | - | - |
| 1777936653 | 25.56° C | 41% | 1012.2 hPa | 0 mm | - | - | - |
| 1777936485 | 25.56° C | 41% | 1012.2 hPa | 0 mm | - | - | - |
| 1777936053 | 25.56° C | 40% | 1012.1 hPa | 0 mm | - | - | - |
| 1777935754 | 26.11° C | 42% | 1012.3 hPa | 0 mm | - | - | - |
| 1777935454 | 26.11° C | 39% | 1012.2 hPa | 0 mm | - | - | - |
| 1777935151 | 26.11° C | 38% | 1012.3 hPa | 0 mm | - | - | - |
| 1777934844 | 26.11° C | 39% | 1012.3 hPa | 0 mm | - | - | - |
| 1777934706 | 26.11° C | 40% | 1012.3 hPa | 0 mm | - | - | - |
| 1777934677 | 26.11° C | 39% | 1012.3 hPa | 0 mm | - | - | - |
| 1777933945 | 26.11° C | 43% | 1012.4 hPa | 0 mm | - | - | - |
| 1777933797 | 26.11° C | 38% | 1012.4 hPa | 0 mm | - | - | - |
| 1777933340 | 26.11° C | 40% | 1012.5 hPa | 0 mm | - | - | - |
* Rain latest hour (hover to see other rain measurements)
** Current wind speed in m/s (hover to see current wind gust speed)